createdAt,value
2023-04-18T00:00:57.417Z,42.67
2023-04-18T00:03:28.063Z,40.38
2023-04-18T00:05:59.146Z,43.95
2023-04-18T00:08:29.297Z,48.85
2023-04-18T00:10:58.507Z,31.25
2023-04-18T00:13:29.282Z,37.50
2023-04-18T00:15:58.264Z,40.90
2023-04-18T00:18:28.381Z,48.25
2023-04-18T00:20:57.740Z,41.05
2023-04-18T00:23:29.206Z,149.75
2023-04-18T00:25:58.239Z,116.40
2023-04-18T00:28:27.475Z,85.07
2023-04-18T00:30:56.970Z,69.57
2023-04-18T00:33:25.897Z,75.70
2023-04-18T00:35:55.800Z,78.53
2023-04-18T00:38:24.781Z,67.72
2023-04-18T00:40:53.981Z,36.70
2023-04-18T00:43:25.712Z,59.35
2023-04-18T00:45:55.233Z,44.53
2023-04-18T00:48:25.529Z,54.90
2023-04-18T00:50:57.196Z,74.65
2023-04-18T00:53:27.183Z,73.43
2023-04-18T00:55:56.985Z,79.75
2023-04-18T00:58:28.042Z,429.38
2023-04-18T01:00:57.567Z,419.75
2023-04-18T01:03:29.607Z,170.55
2023-04-18T01:05:58.884Z,108.47
2023-04-18T01:08:28.832Z,60.03
2023-04-18T01:11:00.408Z,48.75
2023-04-18T01:13:29.957Z,58.38
2023-04-18T01:15:59.876Z,67.90
2023-04-18T01:18:29.151Z,85.80
2023-04-18T01:21:01.553Z,64.45
2023-04-18T01:23:31.869Z,81.50
2023-04-18T01:26:00.832Z,91.82
2023-04-18T01:28:30.714Z,74.82
2023-04-18T01:30:59.930Z,100.47
2023-04-18T01:33:29.025Z,103.80
2023-04-18T01:35:57.942Z,104.60
2023-04-18T01:38:27.069Z,117.70
2023-04-18T01:40:56.153Z,127.97
2023-04-18T01:43:25.195Z,104.35
2023-04-18T01:45:54.711Z,120.32
2023-04-18T01:48:25.514Z,124.78
2023-04-18T01:50:55.054Z,142.48
2023-04-18T01:53:25.720Z,125.00
2023-04-18T01:55:54.724Z,202.00
2023-04-18T01:58:24.777Z,123.75
2023-04-18T02:00:55.087Z,220.70
2023-04-18T02:03:24.526Z,151.35
2023-04-18T02:05:54.378Z,157.48
2023-04-18T02:08:23.922Z,166.13
2023-04-18T02:10:52.981Z,145.07
2023-04-18T02:13:22.559Z,66.18
2023-04-18T02:15:51.992Z,89.40
2023-04-18T02:18:20.899Z,109.95
2023-04-18T02:20:49.873Z,107.72
2023-04-18T02:23:19.551Z,102.55
2023-04-18T02:25:49.434Z,105.63
2023-04-18T02:28:19.757Z,67.80
2023-04-18T02:30:49.052Z,76.22
2023-04-18T02:33:17.767Z,142.48
2023-04-18T02:35:47.487Z,95.38
2023-04-18T02:38:17.828Z,82.45
2023-04-18T02:40:47.060Z,107.25
2023-04-18T02:43:15.999Z,97.35
2023-04-18T02:45:45.079Z,75.97
2023-04-18T02:48:13.880Z,133.05
2023-04-18T02:50:43.087Z,119.95
2023-04-18T02:53:12.338Z,141.82
2023-04-18T02:56:01.570Z,88.30
2023-04-18T02:58:50.937Z,91.25
2023-04-18T03:01:37.181Z,100.10
2023-04-18T03:04:18.520Z,76.72
2023-04-18T03:06:57.043Z,82.90
2023-04-18T03:09:27.859Z,62.03
2023-04-18T03:12:03.293Z,68.85
2023-04-18T03:14:33.505Z,75.65
2023-04-18T03:17:02.406Z,54.03
2023-04-18T03:19:38.395Z,58.38
2023-04-18T03:22:12.623Z,54.13
2023-04-18T03:24:48.746Z,39.17
2023-04-18T03:27:19.574Z,27.35
2023-04-18T03:29:49.677Z,30.52
2023-04-18T03:32:19.447Z,86.40
2023-04-18T03:34:48.523Z,42.92
2023-04-18T03:37:17.562Z,35.60
2023-04-18T03:39:52.358Z,41.83
2023-04-18T03:42:27.253Z,48.58
2023-04-18T03:44:56.427Z,36.25
2023-04-18T03:47:25.475Z,45.95
2023-04-18T03:49:58.725Z,42.58
2023-04-18T03:52:29.914Z,67.38
2023-04-18T03:54:59.205Z,43.13
2023-04-18T03:57:34.382Z,59.60
2023-04-18T04:00:09.074Z,47.88
2023-04-18T04:02:57.368Z,40.92
2023-04-18T04:05:26.790Z,54.70
2023-04-18T04:07:55.778Z,51.38
2023-04-18T04:10:25.140Z,37.83
2023-04-18T04:12:55.655Z,46.08
2023-04-18T04:15:25.387Z,43.38
2023-04-18T04:18:01.147Z,53.40
2023-04-18T04:20:32.369Z,29.80
2023-04-18T04:23:09.651Z,32.47
2023-04-18T04:25:40.585Z,35.88
2023-04-18T04:28:23.862Z,35.58
2023-04-18T04:30:58.719Z,28.98
2023-04-18T04:33:30.943Z,52.33
2023-04-18T04:36:04.756Z,50.78
2023-04-18T04:38:34.895Z,36.58
2023-04-18T04:41:04.922Z,38.38
2023-04-18T04:43:36.165Z,33.85
2023-04-18T04:46:08.580Z,31.77
2023-04-18T04:48:37.924Z,40.13
2023-04-18T04:51:06.986Z,19.95
2023-04-18T04:53:36.864Z,30.25
2023-04-18T04:56:07.145Z,26.42
2023-04-18T04:58:37.495Z,26.52
2023-04-18T05:01:14.442Z,21.95
2023-04-18T05:03:44.060Z,23.08
2023-04-18T05:06:13.504Z,27.23
2023-04-18T05:08:42.167Z,30.30
2023-04-18T05:11:11.227Z,21.42
2023-04-18T05:13:40.228Z,20.48
2023-04-18T05:16:09.898Z,25.27
2023-04-18T05:18:41.403Z,22.00
2023-04-18T05:21:10.386Z,29.27
2023-04-18T05:23:39.305Z,30.05
2023-04-18T05:26:08.667Z,35.22
2023-04-18T05:28:38.266Z,35.22
2023-04-18T05:31:08.160Z,32.35
2023-04-18T05:33:37.521Z,22.70
2023-04-18T05:36:07.617Z,32.50
2023-04-18T05:38:37.148Z,23.08
2023-04-18T05:41:06.502Z,16.17
2023-04-18T05:43:36.559Z,18.27
2023-04-18T05:46:06.207Z,18.20
2023-04-18T05:48:35.270Z,14.15
2023-04-18T05:51:06.069Z,18.45
2023-04-18T05:53:35.574Z,18.27
2023-04-18T05:56:04.669Z,25.17
2023-04-18T05:58:33.943Z,18.38
2023-04-18T06:01:02.755Z,28.48
2023-04-18T06:03:32.436Z,16.88
2023-04-18T06:06:01.975Z,25.95
2023-04-18T06:08:31.175Z,34.15
2023-04-18T06:11:00.568Z,19.33
2023-04-18T06:13:30.368Z,32.75
2023-04-18T06:15:59.686Z,22.35
2023-04-18T06:18:29.273Z,29.10
2023-04-18T06:20:59.057Z,27.45
2023-04-18T06:23:28.007Z,30.08
2023-04-18T06:25:58.258Z,14.95
2023-04-18T06:28:28.190Z,22.20
2023-04-18T06:30:57.812Z,19.85
2023-04-18T06:33:26.951Z,23.17
2023-04-18T06:35:56.137Z,27.10
2023-04-18T06:38:25.372Z,20.83
2023-04-18T06:40:54.823Z,23.20
2023-04-18T06:43:24.286Z,17.30
2023-04-18T06:45:53.531Z,15.57
2023-04-18T06:48:22.657Z,12.05
2023-04-18T06:50:52.582Z,12.45
2023-04-18T06:53:22.139Z,30.38
2023-04-18T06:55:51.633Z,23.70
2023-04-18T06:58:20.948Z,14.07
2023-04-18T07:00:52.947Z,18.45
2023-04-18T07:03:23.017Z,17.92
2023-04-18T07:05:52.693Z,27.13
2023-04-18T07:08:21.936Z,18.98
2023-04-18T07:13:40.057Z,13.27
2023-04-18T07:16:10.730Z,17.35
2023-04-18T07:18:40.157Z,12.63
2023-04-18T07:21:08.997Z,13.48
2023-04-18T07:23:38.911Z,18.15
2023-04-18T07:26:10.558Z,13.80
2023-04-18T07:28:40.088Z,16.85
2023-04-18T07:31:12.520Z,20.20
2023-04-18T07:33:42.868Z,15.35
2023-04-18T07:39:30.328Z,19.15
2023-04-18T07:41:59.812Z,20.90
2023-04-18T07:44:28.813Z,18.77
2023-04-18T07:46:59.395Z,18.38
2023-04-18T07:49:31.883Z,26.42
2023-04-18T07:52:02.845Z,21.58
2023-04-18T07:54:33.513Z,20.55
2023-04-18T07:57:02.835Z,16.08
2023-04-18T07:59:33.452Z,16.48
2023-04-18T08:02:03.049Z,18.05
2023-04-18T08:04:32.074Z,12.98
2023-04-18T08:07:01.518Z,23.13
2023-04-18T08:09:30.795Z,18.25
2023-04-18T08:12:00.575Z,27.65
2023-04-18T08:14:31.393Z,24.30
2023-04-18T08:17:01.288Z,19.27
2023-04-18T08:19:30.752Z,19.98
2023-04-18T08:22:12.115Z,19.10
2023-04-18T08:24:48.625Z,23.85
2023-04-18T08:27:30.516Z,19.75
2023-04-18T08:29:59.870Z,19.25
2023-04-18T08:32:29.465Z,35.38
2023-04-18T08:38:15.019Z,21.05
2023-04-18T08:40:45.943Z,33.50
2023-04-18T08:43:18.363Z,24.45
2023-04-18T08:45:48.274Z,19.83
2023-04-18T08:48:19.555Z,14.27
2023-04-18T08:50:48.755Z,18.45
2023-04-18T08:53:19.506Z,22.17
2023-04-18T08:55:51.577Z,28.52
2023-04-18T09:00:57.889Z,17.80
2023-04-18T09:03:43.605Z,21.70
2023-04-18T09:06:15.297Z,50.33
2023-04-18T09:08:45.522Z,39.80
2023-04-18T09:11:24.925Z,24.10
2023-04-18T09:13:57.113Z,24.77
2023-04-18T09:19:13.611Z,26.15
2023-04-18T09:21:49.594Z,32.28
2023-04-18T09:24:27.478Z,24.55
2023-04-18T09:26:59.576Z,23.52
2023-04-18T09:29:57.810Z,22.85
2023-04-18T09:32:30.243Z,36.90
2023-04-18T09:35:04.384Z,36.30
2023-04-18T09:37:33.952Z,58.20
2023-04-18T09:40:19.298Z,39.85
2023-04-18T09:42:51.688Z,32.05
2023-04-18T09:45:21.419Z,31.67
2023-04-18T09:47:50.612Z,55.47
2023-04-18T09:50:21.783Z,58.92
2023-04-18T09:52:50.791Z,38.83
2023-04-18T09:55:20.876Z,38.17
2023-04-18T09:57:52.471Z,33.40
2023-04-18T10:00:26.249Z,27.60
2023-04-18T10:03:00.837Z,57.13
2023-04-18T10:05:35.070Z,34.60
2023-04-18T10:08:06.030Z,32.72
2023-04-18T10:10:35.241Z,37.72
2023-04-18T10:13:06.339Z,27.83
2023-04-18T10:15:35.984Z,40.40
2023-04-18T10:18:12.008Z,50.40
2023-04-18T10:20:42.825Z,36.15
2023-04-18T10:23:33.498Z,22.63
2023-04-18T10:26:05.131Z,39.65
2023-04-18T10:28:57.967Z,27.27
2023-04-18T10:31:29.370Z,35.70
2023-04-18T10:34:17.720Z,34.25
2023-04-18T10:37:06.244Z,44.13
2023-04-18T10:39:55.543Z,48.42
2023-04-18T10:42:49.736Z,24.27
2023-04-18T10:45:23.183Z,31.75
2023-04-18T10:47:52.553Z,36.22
2023-04-18T10:50:21.713Z,44.10
2023-04-18T10:52:50.943Z,32.58
2023-04-18T10:55:27.545Z,32.05
2023-04-18T10:57:59.837Z,28.30
2023-04-18T11:00:30.814Z,42.08
2023-04-18T11:03:01.633Z,26.63
2023-04-18T11:05:30.994Z,35.00
2023-04-18T11:08:00.086Z,34.67
2023-04-18T11:10:29.229Z,31.08
2023-04-18T11:13:05.532Z,53.92
2023-04-18T11:26:16.262Z,29.13
2023-04-18T11:28:45.636Z,37.45
2023-04-18T11:31:17.391Z,31.55
2023-04-18T11:33:51.751Z,29.77
2023-04-18T11:36:20.887Z,35.42
2023-04-18T11:38:50.014Z,34.53
2023-04-18T11:41:19.194Z,36.50
2023-04-18T11:43:48.464Z,50.25
2023-04-18T11:46:17.559Z,29.88
2023-04-18T11:48:47.562Z,48.55
2023-04-18T11:51:39.802Z,35.25
2023-04-18T11:54:39.756Z,43.78
2023-04-18T11:57:22.159Z,29.92
2023-04-18T11:59:58.868Z,28.98
2023-04-18T12:02:40.189Z,30.10
2023-04-18T12:05:10.846Z,25.75
2023-04-18T12:07:42.725Z,32.03
2023-04-18T12:10:27.316Z,25.60
2023-04-18T12:13:09.905Z,42.15
2023-04-18T12:16:03.654Z,25.10
2023-04-18T12:18:33.620Z,38.10
2023-04-18T12:21:06.844Z,39.15
2023-04-18T12:23:43.045Z,46.55
2023-04-18T12:26:19.196Z,42.92
2023-04-18T12:28:51.535Z,34.53
2023-04-18T12:31:22.487Z,40.88
2023-04-18T12:33:52.489Z,34.90
2023-04-18T12:36:24.072Z,28.75
2023-04-18T12:38:53.283Z,37.40
2023-04-18T12:41:22.188Z,32.35
2023-04-18T12:43:51.400Z,57.17
2023-04-18T12:46:20.551Z,40.90
2023-04-18T12:48:49.648Z,24.48
2023-04-18T12:51:18.601Z,34.92
2023-04-18T12:53:47.836Z,30.02
2023-04-18T12:56:17.268Z,34.22
2023-04-18T12:58:46.635Z,65.13
2023-04-18T13:01:16.177Z,38.45
2023-04-18T13:03:48.701Z,42.35
2023-04-18T13:06:23.575Z,43.00
2023-04-18T13:08:52.517Z,33.33
2023-04-18T13:11:23.478Z,56.38
2023-04-18T13:13:52.591Z,24.30
2023-04-18T13:16:22.010Z,36.83
2023-04-18T13:18:51.360Z,33.22
2023-04-18T13:21:20.308Z,57.55
2023-04-18T13:23:49.354Z,61.42
2023-04-18T13:26:18.435Z,44.85
2023-04-18T13:28:47.586Z,38.75
2023-04-18T13:31:17.230Z,35.58
2023-04-18T13:33:46.810Z,46.42
2023-04-18T13:36:15.616Z,58.65
2023-04-18T13:38:45.124Z,67.72
2023-04-18T13:41:14.151Z,83.93
2023-04-18T13:43:43.479Z,80.65
2023-04-18T13:46:13.374Z,83.22
2023-04-18T13:48:42.522Z,98.88
2023-04-18T13:51:11.706Z,84.70
2023-04-18T13:53:40.802Z,94.65
2023-04-18T13:56:10.736Z,81.13
2023-04-18T13:58:39.632Z,66.07
2023-04-18T14:01:08.857Z,60.80
2023-04-18T14:03:39.449Z,59.40
2023-04-18T14:06:09.732Z,83.43
2023-04-18T14:08:39.417Z,71.10
2023-04-18T14:11:08.873Z,60.47
2023-04-18T14:13:38.899Z,76.50
2023-04-18T14:16:08.758Z,87.13
2023-04-18T14:18:37.851Z,82.13
2023-04-18T14:21:07.597Z,94.72
2023-04-18T14:23:36.893Z,173.50
2023-04-18T14:26:07.005Z,134.35
2023-04-18T14:28:36.281Z,74.07
2023-04-18T14:31:07.392Z,52.03
2023-04-18T14:33:36.949Z,72.07
2023-04-18T14:36:06.622Z,65.22
2023-04-18T14:38:36.833Z,51.40
2023-04-18T14:41:06.846Z,50.05
2023-04-18T14:43:36.261Z,32.90
2023-04-18T14:46:12.259Z,50.17
2023-04-18T14:48:41.492Z,37.60
2023-04-18T14:51:10.616Z,58.08
2023-04-18T14:53:40.029Z,56.13
2023-04-18T14:56:09.644Z,36.08
2023-04-18T14:58:39.603Z,54.80
2023-04-18T15:01:08.518Z,42.97
2023-04-18T15:03:37.892Z,52.88
2023-04-18T15:06:07.594Z,69.13
2023-04-18T15:08:37.230Z,64.13
2023-04-18T15:11:09.731Z,76.20
2023-04-18T15:13:39.570Z,75.28
2023-04-18T15:16:08.945Z,73.20
2023-04-18T15:18:38.025Z,60.25
2023-04-18T15:21:07.656Z,38.38
2023-04-18T15:23:37.485Z,39.60
2023-04-18T15:26:07.329Z,59.92
2023-04-18T15:28:36.546Z,50.00
2023-04-18T15:31:08.512Z,38.22
2023-04-18T15:33:37.605Z,61.63
2023-04-18T15:36:06.790Z,54.90
2023-04-18T15:38:36.476Z,62.72
2023-04-18T15:41:05.362Z,64.22
2023-04-18T15:43:34.503Z,64.22
2023-04-18T15:46:03.833Z,50.42
2023-04-18T15:48:35.153Z,63.13
2023-04-18T15:51:05.101Z,65.97
2023-04-18T15:53:34.172Z,53.72
2023-04-18T15:56:03.377Z,64.40
2023-04-18T15:58:32.833Z,56.78
2023-04-18T16:01:02.353Z,55.15
2023-04-18T16:03:31.697Z,47.83
2023-04-18T16:06:00.923Z,70.40
2023-04-18T16:08:32.671Z,56.33
2023-04-18T16:11:02.681Z,70.47
2023-04-18T16:13:31.994Z,81.65
2023-04-18T16:16:01.267Z,69.22
2023-04-18T16:18:30.466Z,58.42
2023-04-18T16:21:00.019Z,70.97
2023-04-18T16:23:29.116Z,77.07
2023-04-18T16:25:58.530Z,79.65
2023-04-18T16:28:27.670Z,97.68
2023-04-18T16:30:56.537Z,100.03
2023-04-18T16:33:27.126Z,103.18
2023-04-18T16:36:03.702Z,129.18
2023-04-18T16:38:33.147Z,118.72
2023-04-18T16:41:02.669Z,118.45
2023-04-18T16:43:32.027Z,98.90
2023-04-18T16:46:01.667Z,66.20
2023-04-18T16:48:30.672Z,80.85
2023-04-18T16:51:00.290Z,65.38
2023-04-18T16:53:29.641Z,69.03
2023-04-18T16:56:02.286Z,77.65
2023-04-18T16:58:31.534Z,78.30
2023-04-18T17:01:03.538Z,71.57
2023-04-18T17:03:33.011Z,75.80
2023-04-18T17:06:03.196Z,85.55
2023-04-18T17:08:51.214Z,75.30
2023-04-18T17:11:22.058Z,90.20
2023-04-18T17:13:52.377Z,88.97
2023-04-18T17:16:21.560Z,100.50
2023-04-18T17:18:50.515Z,118.10
2023-04-18T17:21:19.961Z,117.78
2023-04-18T17:23:48.923Z,108.65
2023-04-18T17:26:18.207Z,110.35
2023-04-18T17:28:47.136Z,110.97
2023-04-18T17:31:16.676Z,113.22
2023-04-18T17:33:46.199Z,117.13
2023-04-18T17:36:15.332Z,102.35
2023-04-18T17:38:50.123Z,118.68
2023-04-18T17:41:20.798Z,114.47
2023-04-18T17:43:52.070Z,105.97
2023-04-18T17:46:21.446Z,108.70
2023-04-18T17:48:50.409Z,100.75
2023-04-18T17:51:20.557Z,120.55
2023-04-18T17:53:49.645Z,126.93
2023-04-18T17:56:18.544Z,90.68
2023-04-18T17:58:48.377Z,88.10
2023-04-18T18:01:23.062Z,71.32
2023-04-18T18:03:54.676Z,82.93
2023-04-18T18:06:24.322Z,73.80
2023-04-18T18:08:53.158Z,85.43
2023-04-18T18:11:22.572Z,71.10
2023-04-18T18:13:55.481Z,78.85
2023-04-18T18:16:26.071Z,57.65
2023-04-18T18:18:55.599Z,54.60
2023-04-18T18:21:24.640Z,51.97
2023-04-18T18:23:53.842Z,44.28
2023-04-18T18:26:23.013Z,70.30
2023-04-18T18:28:52.044Z,61.55
2023-04-18T18:31:23.924Z,83.43
2023-04-18T18:33:53.720Z,47.85
2023-04-18T18:36:22.728Z,51.25
2023-04-18T18:38:52.051Z,75.97
2023-04-18T18:41:24.054Z,106.65
2023-04-18T18:43:53.950Z,86.10
2023-04-18T18:46:22.970Z,119.15
2023-04-18T18:48:53.065Z,49.72
2023-04-18T18:51:22.215Z,67.13
2023-04-18T18:53:51.693Z,64.57
2023-04-18T18:56:20.974Z,66.03
2023-04-18T18:58:49.995Z,72.10
2023-04-18T19:01:19.141Z,79.30
2023-04-18T19:03:48.613Z,57.03
2023-04-18T19:06:17.738Z,66.55
2023-04-18T19:08:47.435Z,61.70
2023-04-18T19:11:17.159Z,51.70
2023-04-18T19:13:46.459Z,52.40
2023-04-18T19:16:15.745Z,75.30
2023-04-18T19:18:48.331Z,56.78
2023-04-18T19:21:18.594Z,60.33
2023-04-18T19:23:47.772Z,59.50
2023-04-18T19:26:16.863Z,85.18
2023-04-18T19:28:46.739Z,57.47
2023-04-18T19:31:15.740Z,55.80
2023-04-18T19:33:44.988Z,53.40
2023-04-18T19:36:14.220Z,42.33
2023-04-18T19:38:43.567Z,50.90
2023-04-18T19:41:12.893Z,50.90
2023-04-18T19:43:43.526Z,46.22
2023-04-18T19:46:13.013Z,53.50
2023-04-18T19:48:42.022Z,42.20
2023-04-18T19:51:11.344Z,53.60
2023-04-18T19:53:40.807Z,45.03
2023-04-18T19:56:12.118Z,51.90
2023-04-18T19:58:46.281Z,52.75
2023-04-18T20:01:20.052Z,50.72
2023-04-18T20:03:50.616Z,60.88
2023-04-18T20:06:21.436Z,62.30
2023-04-18T20:08:51.498Z,71.18
2023-04-18T20:11:21.898Z,68.10
2023-04-18T20:13:53.785Z,59.35
2023-04-18T20:16:25.206Z,72.68
2023-04-18T20:18:56.995Z,74.80
2023-04-18T20:21:29.677Z,75.53
2023-04-18T20:24:02.430Z,94.43
2023-04-18T20:26:35.696Z,88.30
2023-04-18T20:29:09.029Z,91.53
2023-04-18T20:31:44.614Z,93.70
2023-04-18T20:34:16.755Z,108.85
2023-04-18T20:36:48.808Z,88.15
2023-04-18T20:39:20.807Z,90.55
2023-04-18T20:41:55.106Z,70.93
2023-04-18T20:44:27.069Z,46.92
2023-04-18T20:47:00.332Z,76.85
2023-04-18T20:49:32.534Z,65.07
2023-04-18T20:52:05.083Z,58.22
2023-04-18T20:54:37.912Z,61.55
2023-04-18T20:57:10.072Z,154.50
2023-04-18T20:59:43.200Z,150.43
2023-04-18T21:02:14.902Z,167.88
2023-04-18T21:04:49.755Z,166.52
2023-04-18T21:07:25.690Z,124.10
2023-04-18T21:09:59.835Z,225.82
2023-04-18T21:12:31.093Z,98.22
2023-04-18T21:15:03.856Z,175.25
2023-04-18T21:17:36.065Z,68.35
2023-04-18T21:20:10.248Z,60.70
2023-04-18T21:22:42.317Z,62.33
2023-04-18T21:25:15.058Z,40.67
2023-04-18T21:27:47.168Z,49.90
2023-04-18T21:30:20.474Z,50.40
2023-04-18T21:32:53.447Z,70.88
2023-04-18T21:35:26.738Z,62.90
2023-04-18T21:37:59.395Z,62.45
2023-04-18T21:40:33.706Z,49.88
2023-04-18T21:43:05.711Z,60.08
2023-04-18T21:45:37.659Z,52.78
2023-04-18T21:48:13.156Z,63.83
2023-04-18T21:50:45.798Z,48.83
2023-04-18T21:53:17.914Z,73.15
2023-04-18T21:55:49.943Z,69.28
2023-04-18T21:58:23.465Z,63.05
2023-04-18T22:00:56.444Z,53.85
2023-04-18T22:03:30.247Z,64.45
2023-04-18T22:06:04.125Z,54.78
2023-04-18T22:08:37.074Z,61.40
2023-04-18T22:11:10.500Z,89.60
2023-04-18T22:13:46.760Z,46.63
2023-04-18T22:16:19.586Z,61.97
2023-04-18T22:18:51.436Z,36.90
2023-04-18T22:21:23.560Z,48.63
2023-04-18T22:24:00.578Z,48.33
2023-04-18T22:26:32.826Z,84.35
2023-04-18T22:29:05.972Z,91.72
2023-04-18T22:31:38.182Z,133.63
2023-04-18T22:34:10.289Z,68.28
2023-04-18T22:39:15.150Z,83.15
2023-04-18T22:41:47.167Z,147.23
2023-04-18T22:44:21.908Z,103.43
2023-04-18T22:46:56.721Z,80.75
2023-04-18T22:49:30.369Z,77.47
2023-04-18T22:52:02.823Z,75.20
2023-04-18T22:54:35.602Z,79.13
2023-04-18T22:57:08.958Z,83.10
2023-04-18T22:59:41.185Z,96.50
2023-04-18T23:02:14.637Z,97.85
2023-04-18T23:04:48.250Z,98.68
2023-04-18T23:07:21.611Z,79.13
2023-04-18T23:09:54.256Z,102.55
2023-04-18T23:12:26.318Z,86.32
2023-04-18T23:14:59.965Z,105.13
2023-04-18T23:17:32.464Z,109.45
2023-04-18T23:20:07.370Z,106.55
2023-04-18T23:22:41.599Z,101.82
2023-04-18T23:25:14.820Z,78.97
2023-04-18T23:27:47.588Z,90.75
2023-04-18T23:32:51.604Z,86.57
2023-04-18T23:35:24.523Z,89.50
2023-04-18T23:37:55.544Z,120.72
2023-04-18T23:40:27.691Z,94.67
2023-04-18T23:43:00.385Z,82.43
2023-04-18T23:48:03.389Z,101.00
2023-04-18T23:50:37.378Z,88.45
2023-04-18T23:53:09.408Z,66.35
2023-04-18T23:55:42.060Z,89.72
2023-04-18T23:58:14.476Z,95.45
